Time;durP1;ratioP1;P1;durP2;ratioP2;P2;SDS_P1;SDS_P2;PMS_P1;PMS_P2;Temp;Humidity;BMP_temperature;BMP_pressure;BME280_temperature;BME280_humidity;BME280_pressure;Samples;Min_cycle;Max_cycle;Signal;HPM_P1;HPM_P2
2023/04/15 00:00:10;;;;;;;1.50;1.27;;;21.00;62.60;;;;;;5053315;28;20790;-86
2023/04/15 00:02:38;;;;;;;1.77;1.57;;;21.00;62.70;;;;;;5052895;28;20871;-90
2023/04/15 00:05:05;;;;;;;1.67;1.40;;;21.00;62.60;;;;;;5053109;28;20438;-86
2023/04/15 00:07:33;;;;;;;2.40;1.50;;;21.00;62.50;;;;;;5052999;28;20456;-86
2023/04/15 00:09:59;;;;;;;2.17;1.50;;;21.00;62.60;;;;;;5053365;28;20448;-86
2023/04/15 00:12:27;;;;;;;1.20;1.10;;;21.00;62.70;;;;;;5053007;28;20441;-86
2023/04/15 00:14:58;;;;;;;2.23;1.10;;;21.00;62.90;;;;;;5053000;28;20950;-90
2023/04/15 00:17:24;;;;;;;1.70;1.30;;;20.90;62.50;;;;;;5053051;28;20444;-86
2023/04/15 00:19:51;;;;;;;2.50;1.30;;;20.90;62.40;;;;;;5052935;28;20783;-86
2023/04/15 00:22:18;;;;;;;1.93;1.67;;;20.90;62.60;;;;;;5052857;28;20492;-86
2023/04/15 00:24:45;;;;;;;1.70;1.60;;;20.90;63.20;;;;;;5052755;28;20437;-87
2023/04/15 00:27:12;;;;;;;2.00;1.57;;;20.90;62.50;;;;;;5053321;28;20479;-87
2023/04/15 00:29:39;;;;;;;2.50;1.20;;;20.90;62.50;;;;;;5038998;28;20465;-86
2023/04/15 00:32:08;;;;;;;1.50;1.30;;;20.90;62.70;;;;;;5056565;28;20834;-90
2023/04/15 00:34:34;;;;;;;1.50;1.00;;;20.90;62.60;;;;;;5056698;28;20442;-86
2023/04/15 00:37:01;;;;;;;2.40;1.37;;;20.90;62.60;;;;;;5056539;28;20441;-87
2023/04/15 00:39:28;;;;;;;1.20;1.00;;;20.90;62.50;;;;;;5056479;28;20437;-86
2023/04/15 00:41:56;;;;;;;1.40;1.20;;;20.90;62.50;;;;;;5038689;28;20437;-89
2023/04/15 00:44:23;;;;;;;1.40;1.20;;;20.90;62.50;;;;;;5056388;28;20469;-86
2023/04/15 00:46:51;;;;;;;1.40;1.20;;;20.90;62.60;;;;;;5038406;28;20949;-86
2023/04/15 00:49:20;;;;;;;1.40;1.30;;;20.90;62.60;;;;;;5056286;28;20451;-86
2023/04/15 00:51:47;;;;;;;1.60;1.20;;;20.90;62.60;;;;;;5056383;28;20469;-86
2023/04/15 00:54:14;;;;;;;1.30;1.03;;;20.80;62.30;;;;;;5056245;28;20442;-86
2023/04/15 00:56:41;;;;;;;1.33;1.20;;;20.80;62.50;;;;;;5056176;28;20466;-86
2023/04/15 00:59:08;;;;;;;1.60;1.40;;;20.80;62.50;;;;;;5056062;28;20453;-86
2023/04/15 01:01:37;;;;;;;1.77;1.30;;;21.00;62.60;;;;;;5056088;28;20449;-86
2023/04/15 01:04:05;;;;;;;1.80;1.50;;;21.00;62.70;;;;;;5056116;28;20836;-86
2023/04/15 01:06:33;;;;;;;1.93;1.33;;;20.80;62.40;;;;;;5056056;28;20448;-87
2023/04/15 01:09:01;;;;;;;1.57;1.47;;;20.80;63.50;;;;;;5056177;28;20438;-86
2023/04/15 01:11:28;;;;;;;1.60;1.50;;;20.80;62.50;;;;;;5056206;28;20433;-87
2023/04/15 01:13:56;;;;;;;1.80;1.70;;;20.80;62.80;;;;;;5055797;28;20440;-86
2023/04/15 01:16:24;;;;;;;2.13;1.10;;;20.80;62.60;;;;;;5055808;28;20449;-90
2023/04/15 01:18:50;;;;;;;1.50;1.27;;;20.80;62.60;;;;;;5055777;28;20447;-85
2023/04/15 01:21:18;;;;;;;2.03;1.30;;;20.80;62.60;;;;;;5037868;28;20485;-89
2023/04/15 01:23:47;;;;;;;1.23;1.10;;;20.80;62.60;;;;;;5055600;28;21076;-89
2023/04/15 01:26:16;;;;;;;1.33;1.23;;;20.80;62.60;;;;;;5055203;28;20466;-86
2023/04/15 01:28:43;;;;;;;1.77;1.43;;;20.80;62.70;;;;;;5055455;28;20469;-90
2023/04/15 01:31:12;;;;;;;2.37;1.30;;;20.80;62.70;;;;;;5055524;28;20453;-85
2023/04/15 01:33:39;;;;;;;1.60;1.30;;;20.80;62.70;;;;;;5055685;28;20442;-86
2023/04/15 01:36:08;;;;;;;1.40;1.27;;;20.80;62.70;;;;;;5055640;28;20810;-86
2023/04/15 01:38:36;;;;;;;1.30;1.20;;;20.80;62.70;;;;;;5055484;28;20441;-86
2023/04/15 01:41:03;;;;;;;1.30;1.00;;;20.80;62.60;;;;;;5055671;28;20843;-85
2023/04/15 01:43:31;;;;;;;1.23;1.00;;;20.80;62.80;;;;;;5055284;28;20481;-89
2023/04/15 01:45:58;;;;;;;1.30;1.20;;;20.80;63.60;;;;;;5055261;28;20452;-86
2023/04/15 01:48:26;;;;;;;1.13;1.03;;;20.80;62.80;;;;;;5055476;28;20457;-89
2023/04/15 01:50:56;;;;;;;1.83;1.30;;;20.70;62.60;;;;;;5055134;28;20452;-86
2023/04/15 01:53:23;;;;;;;1.30;1.20;;;20.70;62.70;;;;;;5055357;28;20448;-89
2023/04/15 01:55:50;;;;;;;1.50;1.40;;;20.70;62.80;;;;;;5056259;28;20927;-83
2023/04/15 01:58:17;;;;;;;1.70;1.60;;;20.70;62.60;;;;;;5071616;28;20421;-86
2023/04/15 02:00:45;;;;;;;1.30;1.20;;;20.70;62.60;;;;;;5061710;28;20449;-86
2023/04/15 02:03:12;;;;;;;1.27;1.17;;;20.70;62.60;;;;;;5054855;28;20488;-85
2023/04/15 02:05:38;;;;;;;1.40;1.20;;;20.70;62.70;;;;;;5054906;28;20441;-86
2023/04/15 02:08:05;;;;;;;1.70;1.50;;;20.70;62.70;;;;;;5054821;28;20495;-86
2023/04/15 02:10:32;;;;;;;1.50;1.10;;;20.70;62.80;;;;;;5055111;28;20441;-88
2023/04/15 02:12:59;;;;;;;2.13;1.50;;;20.70;62.90;;;;;;5037000;28;20449;-85
2023/04/15 02:15:26;;;;;;;1.20;1.00;;;20.70;62.80;;;;;;5054627;28;20441;-89
2023/04/15 02:17:54;;;;;;;1.77;1.30;;;20.70;62.80;;;;;;5054540;28;20449;-87
2023/04/15 02:20:22;;;;;;;1.30;1.20;;;20.70;62.80;;;;;;5054526;28;20438;-85
2023/04/15 02:22:49;;;;;;;1.43;1.33;;;20.70;62.80;;;;;;5054662;28;20481;-86
2023/04/15 02:25:16;;;;;;;1.93;1.30;;;20.70;62.90;;;;;;5036748;28;20438;-90
2023/04/15 02:27:44;;;;;;;1.40;1.30;;;20.70;62.80;;;;;;5054060;28;20468;-85
2023/04/15 02:30:11;;;;;;;1.10;1.00;;;20.70;62.80;;;;;;5054221;28;20464;-85
2023/04/15 02:32:38;;;;;;;1.30;1.10;;;20.70;63.00;;;;;;5054395;28;20446;-85
2023/04/15 02:35:08;;;;;;;1.20;1.10;;;20.70;62.80;;;;;;5054621;28;20441;-86
2023/04/15 02:37:40;;;;;;;1.10;1.00;;;20.70;62.80;;;;;;5054246;28;20503;-86
2023/04/15 02:40:09;;;;;;;1.37;1.27;;;20.60;62.80;;;;;;5054386;28;20477;-85
2023/04/15 02:42:35;;;;;;;1.43;1.23;;;20.60;62.80;;;;;;5054193;28;20437;-85
2023/04/15 02:45:02;;;;;;;1.70;1.40;;;20.60;62.70;;;;;;5054133;28;20437;-86
2023/04/15 02:47:29;;;;;;;1.50;1.23;;;20.60;62.80;;;;;;5053964;28;20434;-86
2023/04/15 02:49:57;;;;;;;1.30;1.20;;;20.60;62.90;;;;;;5053466;28;20809;-86
2023/04/15 02:52:25;;;;;;;1.40;1.30;;;20.60;62.80;;;;;;5053905;28;20449;-86
2023/04/15 02:54:52;;;;;;;1.30;1.20;;;20.60;62.80;;;;;;5053952;28;20441;-86
2023/04/15 02:57:19;;;;;;;1.50;1.00;;;20.60;62.80;;;;;;5053893;28;20461;-90
2023/04/15 02:59:46;;;;;;;1.50;1.20;;;20.60;62.90;;;;;;5053980;28;20440;-90
2023/04/15 03:02:13;;;;;;;1.63;1.13;;;20.70;62.90;;;;;;5054167;28;20437;-86
2023/04/15 03:04:39;;;;;;;1.20;1.10;;;20.60;62.80;;;;;;5053417;28;20484;-86
2023/04/15 03:07:06;;;;;;;1.30;1.20;;;20.60;62.80;;;;;;5053845;28;20540;-86
2023/04/15 03:09:35;;;;;;;2.00;1.30;;;20.60;62.80;;;;;;5053678;28;20437;-91
2023/04/15 03:12:02;;;;;;;1.70;1.20;;;20.60;62.80;;;;;;5053736;28;20441;-87
2023/04/15 03:14:28;;;;;;;1.60;1.50;;;20.70;62.90;;;;;;5053791;28;20449;-90
2023/04/15 03:16:56;;;;;;;1.10;1.00;;;20.60;62.80;;;;;;5053786;28;20815;-86
2023/04/15 03:19:22;;;;;;;1.80;1.20;;;20.60;62.90;;;;;;5053524;28;20473;-86
2023/04/15 03:21:49;;;;;;;1.10;1.00;;;20.60;62.90;;;;;;5053518;28;20453;-86
2023/04/15 03:24:16;;;;;;;1.77;1.20;;;20.60;62.80;;;;;;5054271;28;20492;-91
2023/04/15 03:26:44;;;;;;;1.23;1.10;;;20.60;62.80;;;;;;5054708;28;20784;-86
2023/04/15 03:29:11;;;;;;;1.37;1.20;;;20.60;62.80;;;;;;5053650;28;20560;-86
2023/04/15 03:31:38;;;;;;;1.30;1.20;;;20.50;62.70;;;;;;5054177;28;20433;-86
2023/04/15 03:34:05;;;;;;;1.37;1.27;;;20.50;62.70;;;;;;5053493;28;20446;-86
2023/04/15 03:36:32;;;;;;;1.30;1.20;;;20.60;62.90;;;;;;5053354;28;20442;-87
2023/04/15 03:39:00;;;;;;;1.40;1.30;;;20.50;62.70;;;;;;5053116;28;20437;-86
2023/04/15 03:41:28;;;;;;;1.30;1.17;;;20.50;62.80;;;;;;5053374;28;20441;-86
2023/04/15 03:43:56;;;;;;;1.40;1.10;;;20.50;62.80;;;;;;5053116;28;20523;-87
2023/04/15 03:46:23;;;;;;;1.20;1.10;;;20.50;62.60;;;;;;5053219;28;20442;-87
2023/04/15 03:48:50;;;;;;;1.40;1.10;;;20.50;62.70;;;;;;5053316;28;20445;-86
2023/04/15 03:51:17;;;;;;;1.20;1.03;;;20.50;62.90;;;;;;5053103;28;20519;-86
2023/04/15 03:53:43;;;;;;;1.10;1.00;;;20.50;62.80;;;;;;5053022;28;20442;-86
2023/04/15 03:56:10;;;;;;;1.07;0.90;;;20.50;62.80;;;;;;5035150;28;20473;-86
2023/04/15 03:58:37;;;;;;;1.60;1.23;;;20.50;62.90;;;;;;5053056;28;20441;-87
2023/04/15 04:01:06;;;;;;;1.10;1.00;;;20.50;62.90;;;;;;5053152;28;20437;-90
2023/04/15 04:03:33;;;;;;;1.20;1.10;;;20.50;62.80;;;;;;5055904;28;20473;-87
2023/04/15 04:06:00;;;;;;;1.17;0.90;;;20.50;63.00;;;;;;5057067;28;20442;-86
2023/04/15 04:08:26;;;;;;;1.80;1.20;;;20.50;62.90;;;;;;5057054;28;20936;-86
2023/04/15 04:10:53;;;;;;;1.20;1.10;;;20.60;63.00;;;;;;5056976;28;20441;-87
2023/04/15 04:13:20;;;;;;;1.50;1.20;;;20.50;62.90;;;;;;5057287;28;20958;-86
2023/04/15 04:15:47;;;;;;;2.07;1.20;;;20.50;62.80;;;;;;5057014;28;20446;-86
2023/04/15 04:18:15;;;;;;;1.20;1.10;;;20.60;63.00;;;;;;5056808;28;20443;-91
2023/04/15 04:20:42;;;;;;;1.20;1.03;;;20.50;62.90;;;;;;5056733;28;20436;-89
2023/04/15 04:23:08;;;;;;;1.30;1.20;;;20.50;62.90;;;;;;5056659;28;20784;-86
2023/04/15 04:25:35;;;;;;;1.13;1.03;;;20.50;62.90;;;;;;5056716;28;20794;-90
2023/04/15 04:28:02;;;;;;;1.60;1.10;;;20.50;62.90;;;;;;5056476;28;20489;-86
2023/04/15 04:30:29;;;;;;;1.30;1.10;;;20.50;63.10;;;;;;5060385;28;20441;-85
2023/04/15 04:32:56;;;;;;;1.20;1.10;;;20.40;62.80;;;;;;5064857;28;20437;-86
2023/04/15 04:35:24;;;;;;;1.17;1.00;;;20.40;62.80;;;;;;5060683;28;20455;-86
2023/04/15 04:37:51;;;;;;;1.40;1.30;;;20.50;62.90;;;;;;5056563;28;20453;-91
2023/04/15 04:40:18;;;;;;;1.23;1.13;;;20.50;62.90;;;;;;5056473;28;20444;-89
2023/04/15 04:42:45;;;;;;;2.30;1.20;;;20.40;62.80;;;;;;5056866;28;20816;-86
2023/04/15 04:45:12;;;;;;;1.57;1.47;;;20.40;62.80;;;;;;5056320;28;20497;-86
2023/04/15 04:47:39;;;;;;;1.57;1.20;;;20.40;62.80;;;;;;5056436;28;20449;-87
2023/04/15 04:50:07;;;;;;;1.10;0.93;;;20.40;62.80;;;;;;5056796;28;20445;-86
2023/04/15 04:52:36;;;;;;;1.23;1.13;;;20.40;62.80;;;;;;5056395;28;20437;-87
2023/04/15 04:55:03;;;;;;;1.57;1.13;;;20.40;62.90;;;;;;5038734;28;20445;-86
2023/04/15 04:57:30;;;;;;;1.20;1.07;;;20.40;62.80;;;;;;5056494;28;20465;-86
2023/04/15 04:59:57;;;;;;;1.20;1.10;;;20.60;63.10;;;;;;5058793;28;20448;-90
2023/04/15 05:02:25;;;;;;;1.20;1.10;;;20.40;62.90;;;;;;5057069;28;20793;-90
2023/04/15 05:04:53;;;;;;;1.57;1.10;;;20.40;63.00;;;;;;5056698;28;20481;-85
2023/04/15 05:07:20;;;;;;;1.33;1.20;;;20.40;62.90;;;;;;5056948;28;20442;-86
2023/04/15 05:09:48;;;;;;;2.07;1.50;;;20.40;62.90;;;;;;5057203;28;20513;-90
2023/04/15 05:12:17;;;;;;;1.13;0.97;;;20.40;63.10;;;;;;5057034;28;20441;-86
2023/04/15 05:14:45;;;;;;;1.30;1.03;;;20.40;63.00;;;;;;5055874;28;20471;-85
2023/04/15 05:17:13;;;;;;;1.10;0.93;;;20.40;63.00;;;;;;5056804;28;20445;-84
2023/04/15 05:19:40;;;;;;;1.30;1.20;;;20.40;63.00;;;;;;5057290;28;20448;-84
2023/04/15 05:22:07;;;;;;;1.40;1.30;;;20.40;63.00;;;;;;5057138;28;20446;-85
2023/04/15 05:24:34;;;;;;;1.20;1.10;;;20.40;63.00;;;;;;5056730;28;20840;-88
2023/04/15 05:27:02;;;;;;;1.40;1.30;;;20.40;63.10;;;;;;5056701;28;20480;-85
2023/04/15 05:29:29;;;;;;;1.47;1.30;;;20.40;63.00;;;;;;5038168;28;20477;-85
2023/04/15 05:31:56;;;;;;;1.20;1.10;;;20.40;63.10;;;;;;5039591;28;20453;-84
2023/04/15 05:34:23;;;;;;;1.50;1.40;;;20.40;63.10;;;;;;5056455;28;20441;-85
2023/04/15 05:36:49;;;;;;;1.50;0.87;;;20.30;63.00;;;;;;5056077;28;20441;-84
2023/04/15 05:39:16;;;;;;;1.20;1.10;;;20.30;63.00;;;;;;5055973;28;20441;-89
2023/04/15 05:41:43;;;;;;;1.10;1.00;;;20.30;63.00;;;;;;5056636;28;20437;-89
2023/04/15 05:44:11;;;;;;;1.20;1.07;;;20.30;63.10;;;;;;5056421;28;20507;-89
2023/04/15 05:46:38;;;;;;;1.30;1.20;;;20.30;63.10;;;;;;5056080;28;20441;-89
2023/04/15 05:49:05;;;;;;;1.07;0.90;;;20.30;63.00;;;;;;5046595;28;20430;-89
2023/04/15 05:51:32;;;;;;;1.53;0.97;;;20.30;63.00;;;;;;5052824;28;20442;-85
2023/04/15 05:53:58;;;;;;;1.20;1.10;;;20.30;63.10;;;;;;5055963;28;20437;-89
2023/04/15 05:56:27;;;;;;;1.83;1.20;;;20.30;63.10;;;;;;5055872;28;20467;-88
2023/04/15 05:58:53;;;;;;;1.30;1.20;;;20.30;63.10;;;;;;5055628;28;20437;-89
2023/04/15 06:01:22;;;;;;;1.30;1.10;;;20.30;63.10;;;;;;5055254;28;20426;-90
2023/04/15 06:03:48;;;;;;;1.20;1.03;;;20.30;63.20;;;;;;5054610;28;20879;-90
2023/04/15 06:06:15;;;;;;;1.20;1.10;;;20.30;63.10;;;;;;5054610;28;21014;-83
2023/04/15 06:08:42;;;;;;;1.60;1.33;;;20.30;63.20;;;;;;5054622;28;20449;-85
2023/04/15 06:11:09;;;;;;;1.67;1.20;;;20.30;63.20;;;;;;5054522;28;20434;-85
2023/04/15 06:13:36;;;;;;;1.20;1.00;;;20.30;63.10;;;;;;5055260;28;20448;-84
2023/04/15 06:16:03;;;;;;;1.17;1.07;;;20.30;63.10;;;;;;5055071;28;20444;-86
2023/04/15 06:18:31;;;;;;;1.37;1.10;;;20.30;63.20;;;;;;5054892;28;20452;-85
2023/04/15 06:20:58;;;;;;;1.20;1.00;;;20.30;63.00;;;;;;5054854;28;20441;-86
2023/04/15 06:23:25;;;;;;;2.93;1.10;;;20.30;63.10;;;;;;5054871;28;20442;-85
2023/04/15 06:25:51;;;;;;;1.23;1.13;;;20.30;63.00;;;;;;5053748;28;20857;-85
2023/04/15 06:28:18;;;;;;;2.13;1.30;;;20.50;63.30;;;;;;5054520;28;20473;-85
2023/04/15 06:30:45;;;;;;;1.20;1.00;;;20.30;63.00;;;;;;5054919;28;20445;-86
2023/04/15 06:33:12;;;;;;;1.50;1.40;;;20.30;63.00;;;;;;5054803;28;20437;-85
2023/04/15 06:35:40;;;;;;;1.30;1.20;;;20.30;63.00;;;;;;5054683;28;20444;-88
2023/04/15 06:38:06;;;;;;;1.20;1.10;;;20.50;63.20;;;;;;5054476;28;20449;-85
2023/04/15 06:40:33;;;;;;;1.33;1.10;;;20.50;64.10;;;;;;5054823;28;20985;-85
2023/04/15 06:43:00;;;;;;;1.10;1.00;;;20.40;63.10;;;;;;5055145;28;20437;-86
2023/04/15 06:45:27;;;;;;;1.40;1.30;;;20.40;63.00;;;;;;5036924;28;20542;-85
2023/04/15 06:47:54;;;;;;;9.90;1.93;;;20.40;63.20;;;;;;5054300;28;20451;-85
2023/04/15 06:50:21;;;;;;;1.20;1.03;;;20.40;62.90;;;;;;5054440;28;20456;-84
2023/04/15 06:52:49;;;;;;;1.40;1.30;;;20.50;62.60;;;;;;5020137;28;20446;-84
2023/04/15 06:55:16;;;;;;;1.20;1.10;;;20.60;63.40;;;;;;5054295;28;20445;-86
2023/04/15 06:57:43;;;;;;;1.20;1.00;;;20.50;63.30;;;;;;5054060;28;20886;-86
2023/04/15 07:00:11;;;;;;;1.10;0.90;;;20.40;63.40;;;;;;5054381;28;20440;-91
2023/04/15 07:02:38;;;;;;;1.33;1.10;;;20.40;63.60;;;;;;5056566;28;20441;-91
